Time;durP1;ratioP1;P1;durP2;ratioP2;P2;SDS_P1;SDS_P2;PMS_P1;PMS_P2;Temp;Humidity;BMP_temperature;BMP_pressure;BME280_temperature;BME280_humidity;BME280_pressure;Samples;Min_cycle;Max_cycle;Signal;HPM_P1;HPM_P2
2022/08/18 00:01:44;;;;;;;18.25;16.75;;;25.20;92.20;;;;;;5014970;28;20022;-74
2022/08/18 00:04:10;;;;;;;19.33;17.73;;;25.10;92.20;;;;;;5014865;28;20119;-74
2022/08/18 00:06:36;;;;;;;19.50;17.85;;;25.10;92.20;;;;;;5014892;28;20085;-74
2022/08/18 00:09:06;;;;;;;17.75;16.15;;;25.10;92.20;;;;;;5014713;28;20553;-74
2022/08/18 00:11:43;;;;;;;21.52;19.73;;;25.10;92.20;;;;;;5015168;28;20034;-75
2022/08/18 00:14:16;;;;;;;21.33;19.52;;;25.10;92.20;;;;;;5014670;28;20033;-75
2022/08/18 00:16:41;;;;;;;20.95;19.15;;;25.10;92.30;;;;;;5014421;28;20443;-74
2022/08/18 00:19:07;;;;;;;18.88;17.25;;;25.10;92.20;;;;;;5014646;28;20056;-74
2022/08/18 00:21:33;;;;;;;21.33;19.30;;;25.10;92.20;;;;;;5014782;28;20030;-74
2022/08/18 00:23:59;;;;;;;18.88;17.33;;;25.10;92.20;;;;;;5014714;28;20110;-75
2022/08/18 00:26:25;;;;;;;19.52;17.80;;;25.10;92.20;;;;;;5014441;28;20485;-74
2022/08/18 00:28:50;;;;;;;18.05;16.33;;;25.10;92.20;;;;;;5014416;28;20034;-75
2022/08/18 00:31:16;;;;;;;21.27;19.45;;;25.10;92.20;;;;;;5014328;28;20026;-75
2022/08/18 00:33:42;;;;;;;21.30;19.50;;;25.00;92.20;;;;;;5014511;28;20068;-74
2022/08/18 00:36:09;;;;;;;19.30;17.58;;;25.00;92.30;;;;;;5014904;28;20026;-75
2022/08/18 00:38:35;;;;;;;17.92;16.38;;;25.00;92.30;;;;;;5014579;28;20026;-75
2022/08/18 00:41:00;;;;;;;19.35;17.75;;;25.00;92.30;;;;;;5014203;28;20026;-74
2022/08/18 00:43:31;;;;;;;18.15;16.45;;;25.00;92.30;;;;;;5014279;28;20482;-74
2022/08/18 00:45:57;;;;;;;20.17;18.40;;;25.00;92.30;;;;;;5014036;28;20025;-74
2022/08/18 00:48:23;;;;;;;18.45;16.65;;;25.00;92.30;;;;;;5014048;28;20491;-74
2022/08/18 00:50:58;;;;;;;20.38;18.42;;;25.00;92.30;;;;;;5014172;28;20061;-74
2022/08/18 00:53:40;;;;;;;17.83;16.30;;;25.00;92.30;;;;;;5014038;28;20045;-74
2022/08/18 00:56:11;;;;;;;;;;;25.00;92.40;;;;;;5013759;28;20495;-74
2022/08/18 00:58:47;;;;;;;18.10;16.40;;;24.90;92.10;;;;;;5014155;28;19913;-75
2022/08/18 01:01:15;;;;;;;19.40;17.80;;;24.90;92.40;;;;;;5013921;28;20505;-74
2022/08/18 01:03:44;;;;;;;16.55;15.05;;;24.90;92.40;;;;;;5013956;28;20017;-74
2022/08/18 01:06:26;;;;;;;17.80;16.25;;;24.90;92.40;;;;;;5013765;28;20033;-75
2022/08/18 01:08:52;;;;;;;20.27;18.58;;;24.90;92.40;;;;;;5013592;28;20037;-74
2022/08/18 01:11:18;;;;;;;19.88;18.13;;;24.90;92.40;;;;;;5013976;28;20030;-75
2022/08/18 01:13:44;;;;;;;17.48;15.90;;;24.90;92.40;;;;;;5013537;28;20029;-75
2022/08/18 01:21:52;;;;;;;18.40;16.60;;;24.90;92.40;;;;;;5010782;28;20036;-74
2022/08/18 01:27:17;;;;;;;17.83;16.30;;;24.90;92.70;;;;;;4993014;28;20034;-74
2022/08/18 01:29:47;;;;;;;20.17;18.38;;;24.90;92.50;;;;;;4993060;28;20038;-75
2022/08/18 01:32:22;;;;;;;18.67;17.08;;;24.80;92.40;;;;;;4993642;28;20412;-74
2022/08/18 01:34:49;;;;;;;18.38;16.90;;;24.90;92.80;;;;;;4993857;28;20022;-75
2022/08/18 01:37:18;;;;;;;19.65;17.98;;;24.80;92.50;;;;;;4994014;28;20030;-74
2022/08/18 01:39:45;;;;;;;16.33;15.02;;;24.80;92.50;;;;;;4993850;28;20041;-74
2022/08/18 01:42:13;;;;;;;17.88;16.38;;;24.80;92.50;;;;;;4993839;28;20033;-74
2022/08/18 01:44:40;;;;;;;17.23;15.73;;;24.80;92.50;;;;;;5008427;28;20077;-74
2022/08/18 01:47:09;;;;;;;17.15;15.65;;;24.80;92.50;;;;;;4993808;28;20022;-74
2022/08/18 01:49:35;;;;;;;17.10;15.50;;;24.80;92.70;;;;;;4993889;28;20027;-75
2022/08/18 01:52:03;;;;;;;17.85;16.25;;;24.80;92.40;;;;;;4993885;28;20026;-73
2022/08/18 01:54:29;;;;;;;17.00;15.55;;;24.80;92.50;;;;;;4993446;28;20033;-74
2022/08/18 01:56:54;;;;;;;17.15;15.70;;;24.80;92.40;;;;;;4993303;28;20102;-75
2022/08/18 01:59:20;;;;;;;16.88;15.48;;;24.80;92.40;;;;;;4993649;28;20026;-74
2022/08/18 02:01:47;;;;;;;16.45;15.02;;;24.80;92.40;;;;;;4993821;28;20030;-74
2022/08/18 02:04:16;;;;;;;16.58;15.00;;;24.80;92.40;;;;;;4993694;28;20498;-75
2022/08/18 02:06:42;;;;;;;17.38;15.85;;;24.80;92.40;;;;;;4993313;28;20026;-73
2022/08/18 02:09:08;;;;;;;17.55;15.93;;;24.80;92.40;;;;;;4997451;28;20036;-74
2022/08/18 02:11:33;;;;;;;18.35;16.60;;;24.80;92.70;;;;;;4997246;28;20041;-74
2022/08/18 02:13:59;;;;;;;17.98;16.42;;;24.70;92.40;;;;;;4997476;28;20030;-74
2022/08/18 02:16:25;;;;;;;16.52;15.13;;;24.80;92.40;;;;;;5012173;28;20049;-75
2022/08/18 02:18:50;;;;;;;15.75;14.25;;;24.80;92.40;;;;;;4997356;28;20057;-74
2022/08/18 02:21:19;;;;;;;16.67;15.18;;;24.70;92.40;;;;;;4997329;28;20072;-74
2022/08/18 02:23:45;;;;;;;18.00;16.40;;;24.70;92.40;;;;;;4997450;28;20022;-74
2022/08/18 02:26:16;;;;;;;17.30;15.70;;;24.70;92.40;;;;;;4996852;28;20026;-75
2022/08/18 02:28:42;;;;;;;16.75;15.32;;;24.70;92.40;;;;;;4997385;28;20022;-74
2022/08/18 02:31:16;;;;;;;15.15;13.95;;;24.70;92.30;;;;;;4997146;28;20023;-74
2022/08/18 02:33:42;;;;;;;18.73;17.05;;;24.70;92.30;;;;;;4997338;28;20029;-74
2022/08/18 02:36:08;;;;;;;18.02;16.52;;;24.60;92.30;;;;;;4996998;28;20078;-75
2022/08/18 02:38:34;;;;;;;15.98;14.48;;;24.60;92.30;;;;;;4996928;28;20050;-75
2022/08/18 02:41:02;;;;;;;17.38;15.95;;;24.60;92.30;;;;;;4996606;28;20033;-74
2022/08/18 02:43:29;;;;;;;18.13;16.50;;;24.60;92.20;;;;;;4996917;28;20486;-74
2022/08/18 02:45:56;;;;;;;19.77;18.10;;;24.60;92.50;;;;;;4996646;28;20014;-74
2022/08/18 02:48:40;;;;;;;17.10;15.57;;;24.60;92.20;;;;;;4996918;28;20037;-74
2022/08/18 02:51:11;;;;;;;16.42;14.90;;;24.60;92.20;;;;;;4996867;28;20023;-74
2022/08/18 02:53:39;;;;;;;15.95;14.65;;;24.60;92.20;;;;;;4996658;28;20065;-75
2022/08/18 02:56:23;;;;;;;16.35;14.95;;;24.60;92.20;;;;;;4996290;28;20105;-74
2022/08/18 02:58:53;;;;;;;17.27;15.75;;;24.60;92.20;;;;;;4996921;28;20026;-74
2022/08/18 03:01:20;;;;;;;16.05;14.65;;;24.50;92.20;;;;;;4996449;28;20113;-74
2022/08/18 03:03:46;;;;;;;16.73;15.15;;;24.60;92.20;;;;;;4996777;28;20033;-74
2022/08/18 03:06:12;;;;;;;16.05;14.65;;;24.60;92.20;;;;;;4996385;28;20110;-74
2022/08/18 03:08:37;;;;;;;16.02;14.70;;;24.60;92.20;;;;;;4996385;28;20128;-74
2022/08/18 03:11:03;;;;;;;16.35;15.05;;;24.50;92.10;;;;;;4996373;28;20037;-74
2022/08/18 03:13:29;;;;;;;16.23;14.77;;;24.50;92.10;;;;;;4996320;28;20026;-74
2022/08/18 03:15:55;;;;;;;15.15;13.85;;;24.50;92.10;;;;;;4996354;28;20454;-74
2022/08/18 03:18:22;;;;;;;14.90;13.65;;;24.50;92.10;;;;;;4996073;28;20465;-74
2022/08/18 03:20:48;;;;;;;15.15;13.75;;;24.40;92.10;;;;;;4995922;28;20061;-74
2022/08/18 03:23:13;;;;;;;16.73;15.25;;;24.40;92.10;;;;;;4996326;28;20018;-74
2022/08/18 03:25:46;;;;;;;16.40;14.90;;;24.40;92.10;;;;;;4995951;28;20084;-74
2022/08/18 03:28:12;;;;;;;16.80;15.40;;;24.40;92.20;;;;;;4996100;28;20019;-74
2022/08/18 03:30:38;;;;;;;16.45;14.85;;;24.40;92.20;;;;;;4995989;28;20027;-74
2022/08/18 03:33:04;;;;;;;18.55;16.95;;;24.40;92.20;;;;;;4996209;28;20356;-74
2022/08/18 03:35:29;;;;;;;17.70;16.20;;;24.40;92.10;;;;;;4996093;28;20030;-74
2022/08/18 03:37:59;;;;;;;17.23;15.73;;;24.50;92.10;;;;;;4995913;28;20033;-75
2022/08/18 03:40:24;;;;;;;17.95;16.38;;;24.40;92.10;;;;;;4996695;23;20056;-74
2022/08/18 03:42:50;;;;;;;20.02;18.25;;;24.40;92.10;;;;;;5015297;28;20038;-74
2022/08/18 03:45:16;;;;;;;18.55;16.83;;;24.40;92.10;;;;;;5015384;28;20029;-74
2022/08/18 03:47:44;;;;;;;17.60;15.98;;;24.40;92.10;;;;;;5015321;28;20494;-74
2022/08/18 03:50:10;;;;;;;17.23;15.68;;;24.40;92.10;;;;;;5015568;28;20021;-74
2022/08/18 03:52:37;;;;;;;16.70;15.32;;;24.40;92.20;;;;;;5015172;28;20467;-74
2022/08/18 03:55:04;;;;;;;17.08;15.68;;;24.40;92.20;;;;;;5015066;28;20056;-74
2022/08/18 03:57:31;;;;;;;16.52;14.88;;;24.40;92.20;;;;;;5014895;28;20018;-74
2022/08/18 03:59:58;;;;;;;16.02;14.63;;;24.40;92.20;;;;;;5015248;28;20494;-74
2022/08/18 04:02:23;;;;;;;13.75;12.55;;;24.40;92.20;;;;;;5015128;28;20018;-75
2022/08/18 04:04:49;;;;;;;16.17;14.68;;;24.40;92.20;;;;;;5014927;28;20021;-74
2022/08/18 04:07:16;;;;;;;14.38;13.18;;;24.40;92.20;;;;;;5015097;28;20029;-74
2022/08/18 04:09:42;;;;;;;14.90;13.60;;;24.40;92.20;;;;;;5014805;28;20021;-72
2022/08/18 04:12:12;;;;;;;15.50;14.20;;;24.40;92.20;;;;;;5014851;28;20034;-74
2022/08/18 04:14:40;;;;;;;13.85;12.65;;;24.30;92.10;;;;;;5014643;28;20033;-74
2022/08/18 04:17:05;;;;;;;12.73;11.73;;;24.40;92.20;;;;;;5014706;28;20115;-74
2022/08/18 04:19:33;;;;;;;15.02;13.77;;;24.30;92.10;;;;;;5014758;28;20014;-74
2022/08/18 04:22:00;;;;;;;16.02;14.52;;;24.30;92.10;;;;;;5014600;28;20104;-75
2022/08/18 04:24:28;;;;;;;14.38;13.07;;;24.30;92.10;;;;;;5014552;28;20396;-75
2022/08/18 04:26:56;;;;;;;13.43;12.23;;;24.30;92.10;;;;;;5014431;28;20025;-74
2022/08/18 04:29:22;;;;;;;15.20;13.70;;;24.30;92.10;;;;;;5014547;28;20423;-74
2022/08/18 04:31:50;;;;;;;13.77;12.60;;;24.30;92.10;;;;;;5013458;28;20010;-74
2022/08/18 04:34:17;;;;;;;14.27;13.07;;;24.30;92.10;;;;;;5014368;28;20390;-75
2022/08/18 04:36:43;;;;;;;13.82;12.55;;;24.30;92.10;;;;;;5013927;28;20029;-74
2022/08/18 04:39:10;;;;;;;15.00;13.88;;;24.30;92.10;;;;;;4996819;28;20384;-74
2022/08/18 04:41:38;;;;;;;12.57;11.57;;;24.20;92.10;;;;;;5014305;28;20080;-74
2022/08/18 04:44:07;;;;;;;13.35;12.13;;;24.30;92.10;;;;;;5014238;28;20076;-74
2022/08/18 04:46:38;;;;;;;14.73;13.52;;;24.30;92.10;;;;;;5014339;28;20030;-74
2022/08/18 04:49:04;;;;;;;13.48;12.38;;;24.20;92.10;;;;;;5014439;28;20104;-74
2022/08/18 04:51:30;;;;;;;12.07;11.02;;;24.30;92.10;;;;;;5013980;28;20108;-75
2022/08/18 04:53:59;;;;;;;13.88;12.57;;;24.20;92.10;;;;;;5014128;28;20482;-74
2022/08/18 04:56:33;;;;;;;12.00;10.90;;;24.20;92.10;;;;;;4996107;28;20542;-74
2022/08/18 04:59:08;;;;;;;11.90;11.00;;;24.30;92.20;;;;;;5014163;28;20029;-74
2022/08/18 05:01:46;;;;;;;13.20;12.20;;;24.30;92.20;;;;;;5007201;28;20030;-74
2022/08/18 05:04:13;;;;;;;14.30;12.90;;;24.20;92.20;;;;;;4998596;28;20038;-74
2022/08/18 05:06:42;;;;;;;12.15;11.15;;;24.20;92.20;;;;;;4991770;28;20028;-75
2022/08/18 05:09:09;;;;;;;11.50;10.60;;;24.20;92.20;;;;;;4992388;28;20065;-75
2022/08/18 05:11:35;;;;;;;13.73;12.52;;;24.20;92.30;;;;;;4994337;28;20015;-74
2022/08/18 05:14:05;;;;;;;12.93;11.70;;;24.20;92.30;;;;;;4994313;28;20041;-74
2022/08/18 05:16:35;;;;;;;11.68;10.52;;;24.20;92.20;;;;;;4994198;28;20042;-74
2022/08/18 05:19:06;;;;;;;14.43;10.48;;;24.20;92.20;;;;;;4994050;28;20022;-75
2022/08/18 05:21:32;;;;;;;12.23;11.05;;;24.20;92.20;;;;;;4993843;28;20022;-74
2022/08/18 05:23:59;;;;;;;12.98;11.15;;;24.20;92.20;;;;;;4994202;28;20076;-74
2022/08/18 05:26:26;;;;;;;12.32;11.25;;;24.20;92.10;;;;;;4993833;28;20034;-75
2022/08/18 05:28:52;;;;;;;13.85;11.70;;;24.20;92.20;;;;;;4994144;28;20030;-75
2022/08/18 05:31:21;;;;;;;13.20;12.00;;;24.20;92.10;;;;;;4993957;28;20030;-74
2022/08/18 05:33:48;;;;;;;13.18;11.98;;;24.20;92.20;;;;;;4993936;28;20026;-75
2022/08/18 05:36:47;;;;;;;11.63;10.63;;;24.20;92.10;;;;;;4993292;28;20038;-74
2022/08/18 05:39:19;;;;;;;11.65;10.65;;;24.20;92.10;;;;;;4994175;28;20459;-75
2022/08/18 05:41:50;;;;;;;;;;;24.20;92.10;;;;;;4993722;28;20026;-75
2022/08/18 05:44:20;;;;;;;13.35;12.07;;;24.10;92.00;;;;;;4993878;28;19910;-75
2022/08/18 05:46:55;;;;;;;12.50;11.20;;;24.20;92.20;;;;;;4992446;28;20023;-74
2022/08/18 05:49:24;;;;;;;13.80;12.60;;;24.20;92.20;;;;;;4993677;28;20030;-74
2022/08/18 05:52:00;;;;;;;13.57;12.20;;;24.20;92.20;;;;;;4993701;28;20026;-74
2022/08/18 05:57:21;;;;;;;11.05;10.10;;;24.20;92.30;;;;;;4993898;28;20550;-74
2022/08/18 05:59:47;;;;;;;11.75;10.70;;;24.20;92.30;;;;;;4993754;28;20030;-75
2022/08/18 06:02:37;;;;;;;11.98;10.77;;;24.20;92.30;;;;;;4993737;28;20023;-74
2022/08/18 06:05:07;;;;;;;10.43;9.13;;;24.20;92.40;;;;;;4993547;28;20476;-75
2022/08/18 06:07:34;;;;;;;11.40;10.40;;;24.20;92.30;;;;;;4993372;28;20028;-75
2022/08/18 06:10:01;;;;;;;10.23;9.32;;;24.30;92.40;;;;;;4993650;28;20030;-74
2022/08/18 06:12:40;;;;;;;11.77;10.68;;;24.20;92.30;;;;;;4993463;28;20022;-74
2022/08/18 06:15:15;;;;;;;10.98;10.05;;;24.30;92.70;;;;;;4993614;28;20031;-74
2022/08/18 06:17:56;;;;;;;10.50;9.60;;;24.30;92.40;;;;;;4993267;28;20080;-74
2022/08/18 06:20:49;;;;;;;8.13;7.43;;;24.30;92.40;;;;;;4993504;28;20030;-74
2022/08/18 06:23:40;;;;;;;10.30;9.30;;;24.30;92.40;;;;;;4993532;28;20018;-74
2022/08/18 06:26:26;;;;;;;9.30;8.60;;;24.30;92.50;;;;;;4993175;28;20019;-75
2022/08/18 06:29:24;;;;;;;10.10;9.23;;;24.40;92.50;;;;;;4992249;28;20072;-74
2022/08/18 06:32:16;;;;;;;9.32;8.60;;;24.40;92.60;;;;;;4993309;28;20488;-74
2022/08/18 06:35:11;;;;;;;9.77;8.98;;;24.40;92.70;;;;;;4991911;28;20177;-74
2022/08/18 06:40:36;;;;;;;9.77;8.88;;;24.40;92.70;;;;;;4993304;28;20033;-74
2022/08/18 06:43:03;;;;;;;10.70;9.15;;;24.40;92.70;;;;;;4993121;28;20484;-75
2022/08/18 06:45:34;;;;;;;9.93;9.02;;;24.40;92.80;;;;;;4993342;28;20019;-74
2022/08/18 06:48:16;;;;;;;9.10;7.82;;;24.50;92.80;;;;;;4992903;28;20022;-75
2022/08/18 06:50:52;;;;;;;8.95;8.25;;;24.60;92.90;;;;;;4992088;28;20026;-75
2022/08/18 06:53:19;;;;;;;9.85;8.95;;;24.60;92.90;;;;;;4993137;28;20113;-74
2022/08/18 06:55:47;;;;;;;9.93;9.07;;;24.70;92.90;;;;;;4995993;28;20030;-74
2022/08/18 06:58:12;;;;;;;9.18;8.48;;;24.70;92.80;;;;;;4996758;28;20431;-74
2022/08/18 07:00:45;;;;;;;8.60;7.90;;;24.80;92.80;;;;;;4996816;28;20056;-75
2022/08/18 07:03:19;;;;;;;;;;;24.80;92.60;;;;;;4996809;28;20022;-74
2022/08/18 07:06:03;;;;;;;8.40;7.70;;;24.80;92.60;;;;;;4996887;28;20052;-74
2022/08/18 07:08:32;;;;;;;9.23;8.52;;;24.80;92.80;;;;;;4996440;28;20432;-75
2022/08/18 07:11:16;;;;;;;10.55;8.30;;;24.90;92.70;;;;;;4996251;28;20033;-74
2022/08/18 07:13:44;;;;;;;9.68;8.85;;;24.90;92.80;;;;;;4996341;28;20042;-74
2022/08/18 07:16:36;;;;;;;10.32;9.43;;;24.90;92.80;;;;;;4995859;28;20037;-74
2022/08/18 07:19:10;;;;;;;9.55;8.68;;;25.00;93.00;;;;;;4996414;28;20037;-74
2022/08/18 07:21:37;;;;;;;9.95;9.13;;;25.00;92.80;;;;;;4996226;28;20085;-75
2022/08/18 07:24:07;;;;;;;9.52;8.63;;;25.00;92.80;;;;;;4996280;28;20019;-74
2022/08/18 07:26:56;;;;;;;11.52;10.50;;;25.00;92.90;;;;;;4996157;28;20077;-74
2022/08/18 07:29:21;;;;;;;12.15;11.05;;;25.10;93.10;;;;;;4957796;28;20077;-74
2022/08/18 07:31:50;;;;;;;13.88;12.45;;;25.20;93.00;;;;;;4995732;28;20061;-74
2022/08/18 07:34:39;;;;;;;14.18;12.77;;;25.20;93.00;;;;;;4995995;28;20030;-74
2022/08/18 07:37:17;;;;;;;11.38;10.35;;;25.20;93.50;;;;;;4995798;28;20129;-74
2022/08/18 07:40:43;;;;;;;9.80;8.75;;;25.30;93.20;;;;;;4995996;28;20021;-74
2022/08/18 07:43:27;;;;;;;11.95;10.98;;;25.30;93.10;;;;;;4897987;29;20128;-74
2022/08/18 07:45:56;;;;;;;12.30;11.13;;;25.30;92.80;;;;;;4988111;28;20509;-75
2022/08/18 07:48:30;;;;;;;10.25;9.02;;;25.40;93.10;;;;;;4995550;28;20462;-74
2022/08/18 07:51:12;;;;;;;10.77;9.82;;;25.40;93.00;;;;;;4994737;28;20025;-74
2022/08/18 07:53:48;;;;;;;9.87;9.07;;;25.40;93.10;;;;;;4995661;28;20030;-74
2022/08/18 07:56:37;;;;;;;10.15;9.35;;;25.40;93.00;;;;;;4995736;28;20041;-74
2022/08/18 07:59:19;;;;;;;11.07;10.18;;;25.50;93.10;;;;;;4995371;28;20033;-75
2022/08/18 08:02:00;;;;;;;11.27;10.23;;;25.50;92.90;;;;;;4995484;28;20023;-74
2022/08/18 08:04:28;;;;;;;9.60;8.80;;;25.50;93.00;;;;;;4995508;28;20105;-75
2022/08/18 08:07:05;;;;;;;8.35;7.47;;;25.50;92.70;;;;;;4995323;28;20101;-76
2022/08/18 08:09:45;;;;;;;7.45;6.85;;;25.60;92.70;;;;;;4995385;28;20034;-75
2022/08/18 08:12:29;;;;;;;10.45;9.55;;;25.50;92.60;;;;;;4995348;28;20399;-75
2022/08/18 08:15:21;;;;;;;9.30;8.50;;;25.60;92.60;;;;;;4994981;28;20034;-75
2022/08/18 08:18:08;;;;;;;10.75;9.77;;;25.60;92.70;;;;;;4984443;28;20038;-75
2022/08/18 08:20:49;;;;;;;10.30;9.50;;;25.60;92.50;;;;;;4995367;28;20436;-75
2022/08/18 08:23:35;;;;;;;8.73;8.02;;;25.60;92.60;;;;;;4995138;28;20022;-75
2022/08/18 08:26:20;;;;;;;9.32;8.52;;;25.70;92.30;;;;;;4993843;28;20033;-75
2022/08/18 08:28:45;;;;;;;10.15;9.13;;;25.70;92.50;;;;;;4994722;28;20535;-75
2022/08/18 08:31:37;;;;;;;8.77;8.00;;;25.70;92.40;;;;;;4994822;28;20505;-75
2022/08/18 08:34:22;;;;;;;8.40;7.70;;;25.80;92.40;;;;;;4982357;28;20038;-75
2022/08/18 08:36:56;;;;;;;7.38;6.68;;;25.80;92.30;;;;;;4994837;28;20045;-76
2022/08/18 08:39:41;;;;;;;7.78;6.93;;;25.80;91.70;;;;;;4994627;28;20033;-75
2022/08/18 08:42:39;;;;;;;7.57;6.97;;;25.80;91.90;;;;;;4994544;28;20026;-75
2022/08/18 08:45:14;;;;;;;7.28;6.57;;;25.80;92.10;;;;;;4994229;28;20030;-75
2022/08/18 08:48:02;;;;;;;7.78;7.18;;;25.80;91.60;;;;;;4994550;28;20023;-75
2022/08/18 08:50:33;;;;;;;7.88;7.18;;;25.80;91.70;;;;;;4994474;28;20029;-75
2022/08/18 08:53:15;;;;;;;9.70;8.90;;;25.90;91.70;;;;;;4994625;28;20108;-75
2022/08/18 08:55:46;;;;;;;8.25;7.45;;;25.90;91.60;;;;;;4994356;28;20031;-75
2022/08/18 08:58:37;;;;;;;7.85;7.15;;;25.90;91.20;;;;;;4994259;28;20101;-75
2022/08/18 09:01:04;;;;;;;7.15;6.65;;;26.00;91.40;;;;;;4983547;28;20046;-75
2022/08/18 09:03:35;;;;;;;6.65;6.10;;;26.00;91.30;;;;;;4994713;28;20106;-75
2022/08/18 09:06:35;;;;;;;6.88;6.13;;;26.00;91.20;;;;;;4994244;28;20031;-75
2022/08/18 09:09:10;;;;;;;4.75;4.35;;;26.00;91.40;;;;;;4994228;28;20039;-75
2022/08/18 09:12:24;;;;;;;9.23;8.43;;;26.00;90.80;;;;;;4994222;28;20084;-75
2022/08/18 09:15:38;;;;;;;7.55;6.85;;;26.00;91.40;;;;;;4993998;28;20050;-75
2022/08/18 09:18:33;;;;;;;8.77;8.07;;;26.00;91.30;;;;;;4986587;28;20104;-75
2022/08/18 09:21:19;;;;;;;8.90;8.10;;;26.00;91.40;;;;;;4994091;28;20035;-75
2022/08/18 09:23:49;;;;;;;7.93;7.22;;;26.00;91.40;;;;;;4994194;28;20464;-75
2022/08/18 09:26:44;;;;;;;8.18;7.47;;;26.10;90.80;;;;;;4993839;28;20019;-75
2022/08/18 09:29:17;;;;;;;8.55;7.25;;;26.10;91.00;;;;;;4994094;28;20105;-75
2022/08/18 09:31:45;;;;;;;7.72;7.13;;;26.10;91.10;;;;;;4993650;28;20031;-75
2022/08/18 09:34:37;;;;;;;6.45;5.85;;;26.10;90.90;;;;;;4992758;28;20068;-75
2022/08/18 09:37:17;;;;;;;8.50;7.80;;;26.10;91.00;;;;;;4993865;28;20390;-75
2022/08/18 09:43:06;;;;;;;10.60;9.75;;;26.10;90.70;;;;;;4993848;28;20049;-75
2022/08/18 09:45:32;;;;;;;10.27;9.38;;;26.10;91.00;;;;;;4993673;28;20019;-75
2022/08/18 09:48:10;;;;;;;10.60;9.60;;;26.20;90.90;;;;;;4993759;28;20031;-75
2022/08/18 09:50:57;;;;;;;10.45;9.45;;;26.20;91.00;;;;;;4993757;28;20102;-75
2022/08/18 09:53:51;;;;;;;9.38;8.68;;;26.20;90.90;;;;;;4993808;28;20030;-75
2022/08/18 09:57:03;;;;;;;9.23;8.35;;;26.20;90.90;;;;;;4992994;28;20030;-75
2022/08/18 09:59:31;;;;;;;9.75;8.90;;;26.20;91.10;;;;;;4963608;28;20118;-76
2022/08/18 10:01:57;;;;;;;8.55;7.85;;;26.20;90.90;;;;;;4993566;28;20380;-75
2022/08/18 10:04:26;;;;;;;7.20;6.60;;;26.20;90.50;;;;;;4993568;28;20044;-75
2022/08/18 10:06:52;;;;;;;4.78;4.40;;;26.30;90.70;;;;;;4993417;28;20034;-75
2022/08/18 10:09:29;;;;;;;5.43;4.93;;;26.30;90.20;;;;;;4993619;28;20023;-75
2022/08/18 10:12:20;;;;;;;7.22;6.63;;;26.30;90.40;;;;;;4993127;28;20101;-75
2022/08/18 10:15:15;;;;;;;5.35;4.85;;;26.20;90.50;;;;;;4993545;28;20050;-75
2022/08/18 10:18:16;;;;;;;5.60;5.10;;;26.30;90.40;;;;;;4993405;28;20109;-75
2022/08/18 10:20:53;;;;;;;7.03;6.50;;;26.30;90.30;;;;;;4993165;28;20480;-75
2022/08/18 10:23:47;;;;;;;6.97;6.22;;;26.30;90.40;;;;;;4992076;28;20428;-75
2022/08/18 10:26:32;;;;;;;7.10;6.45;;;26.20;90.50;;;;;;4991561;28;20387;-75
2022/08/18 10:29:00;;;;;;;7.32;6.75;;;26.30;90.40;;;;;;4993838;28;20018;-76
2022/08/18 10:31:28;;;;;;;7.03;6.50;;;26.30;90.30;;;;;;4997050;28;20486;-75
2022/08/18 10:33:59;;;;;;;7.43;6.78;;;26.30;90.20;;;;;;4997086;28;20018;-75
2022/08/18 10:36:43;;;;;;;8.48;7.78;;;26.30;90.40;;;;;;4996841;28;20030;-75
2022/08/18 10:39:17;;;;;;;7.95;7.25;;;26.30;90.50;;;;;;4996730;28;20137;-75
2022/08/18 10:42:01;;;;;;;7.05;6.45;;;26.40;90.20;;;;;;4996985;28;20045;-76
2022/08/18 10:44:30;;;;;;;4.45;4.13;;;26.40;90.40;;;;;;4996968;28;20026;-75
2022/08/18 10:46:58;;;;;;;4.28;3.90;;;26.40;89.90;;;;;;4997112;28;20026;-75
2022/08/18 10:49:27;;;;;;;6.32;5.72;;;26.40;89.80;;;;;;4997185;28;20045;-75
2022/08/18 10:52:14;;;;;;;6.18;5.65;;;26.40;89.90;;;;;;4996733;28;20459;-76
2022/08/18 10:55:12;;;;;;;5.43;5.03;;;26.40;90.10;;;;;;4996505;28;20490;-75
2022/08/18 10:58:19;;;;;;;7.25;6.65;;;26.40;90.10;;;;;;4996584;28;20033;-75
2022/08/18 11:01:12;;;;;;;5.70;5.20;;;26.50;90.10;;;;;;4995834;28;20364;-75
2022/08/18 11:04:25;;;;;;;4.57;4.18;;;26.50;89.90;;;;;;4996514;28;20065;-75
2022/08/18 11:07:01;;;;;;;4.88;4.47;;;26.40;89.80;;;;;;4972135;28;20042;-75
2022/08/18 11:09:29;;;;;;;4.57;4.13;;;26.50;89.30;;;;;;4996345;28;20037;-75
2022/08/18 11:11:58;;;;;;;4.82;4.30;;;26.50;88.80;;;;;;4996803;28;20035;-75
2022/08/18 11:14:51;;;;;;;4.80;4.40;;;26.50;88.60;;;;;;4996330;28;20049;-74
2022/08/18 11:17:22;;;;;;;4.55;4.15;;;26.50;88.70;;;;;;4996230;28;20030;-75
2022/08/18 11:19:50;;;;;;;4.30;3.90;;;26.50;87.60;;;;;;4996314;28;20478;-75
2022/08/18 11:22:22;;;;;;;5.50;3.80;;;26.50;87.70;;;;;;4994971;28;20022;-75
2022/08/18 11:24:48;;;;;;;4.72;3.85;;;26.50;87.90;;;;;;4996244;28;20030;-75
2022/08/18 11:27:34;;;;;;;3.78;3.40;;;26.50;87.50;;;;;;4996110;28;20028;-75
2022/08/18 11:30:04;;;;;;;4.57;4.13;;;26.50;88.10;;;;;;4996195;28;20031;-75
2022/08/18 11:32:33;;;;;;;4.20;3.90;;;26.60;87.40;;;;;;4995985;28;20019;-75
2022/08/18 11:35:01;;;;;;;4.72;4.13;;;26.60;87.40;;;;;;4996126;28;20371;-75
2022/08/18 11:37:32;;;;;;;4.22;3.92;;;26.60;87.30;;;;;;4995830;28;20110;-75
2022/08/18 11:40:00;;;;;;;4.57;4.10;;;26.60;87.20;;;;;;4995467;28;20029;-75
2022/08/18 11:42:40;;;;;;;4.88;4.13;;;26.70;86.70;;;;;;4995615;28;20109;-75
2022/08/18 11:45:18;;;;;;;4.53;4.13;;;26.60;87.30;;;;;;4996103;28;20628;-75
2022/08/18 11:48:08;;;;;;;4.45;4.15;;;26.70;87.30;;;;;;4995752;28;20053;-75
2022/08/18 11:50:45;;;;;;;4.70;4.30;;;26.70;87.20;;;;;;4995733;28;20027;-75
2022/08/18 11:53:33;;;;;;;4.45;4.05;;;26.70;87.20;;;;;;4995426;28;20057;-75
2022/08/18 11:56:13;;;;;;;4.85;4.45;;;26.70;86.70;;;;;;4995682;28;20400;-75
2022/08/18 11:58:55;;;;;;;3.80;3.50;;;26.70;86.90;;;;;;4995661;28;20030;-75
2022/08/18 12:01:33;;;;;;;4.65;4.25;;;26.70;86.70;;;;;;4995536;28;20034;-76
2022/08/18 12:04:07;;;;;;;4.30;4.00;;;26.70;86.70;;;;;;4995740;28;20022;-76
2022/08/18 12:06:34;;;;;;;4.13;3.72;;;26.80;86.70;;;;;;4995128;28;20034;-75
2022/08/18 12:09:17;;;;;;;3.85;3.55;;;26.80;86.40;;;;;;4995449;28;20026;-75
2022/08/18 12:11:55;;;;;;;3.50;3.20;;;26.80;86.60;;;;;;4995389;28;20113;-75
2022/08/18 12:14:27;;;;;;;3.88;3.50;;;26.80;86.50;;;;;;4995029;28;20411;-75
2022/08/18 12:16:53;;;;;;;4.05;3.75;;;26.80;86.30;;;;;;4995298;28;20108;-75
2022/08/18 12:19:19;;;;;;;4.18;3.35;;;26.80;86.20;;;;;;4994988;28;20456;-75
2022/08/18 12:21:52;;;;;;;3.95;3.65;;;26.80;86.00;;;;;;4995066;28;20073;-75
2022/08/18 12:24:25;;;;;;;3.85;3.40;;;26.80;86.30;;;;;;4995000;28;20114;-74
2022/08/18 12:26:52;;;;;;;4.78;3.55;;;26.80;86.40;;;;;;4995084;28;20033;-75
2022/08/18 12:29:18;;;;;;;3.95;3.65;;;26.80;86.00;;;;;;4994935;28;20121;-76
2022/08/18 12:31:45;;;;;;;4.20;3.80;;;26.80;85.90;;;;;;4995181;28;20022;-75
2022/08/18 12:34:11;;;;;;;3.53;3.22;;;26.90;86.10;;;;;;4994750;28;20022;-76
2022/08/18 12:36:38;;;;;;;3.95;3.50;;;26.80;86.00;;;;;;4995080;28;20464;-75
2022/08/18 12:39:04;;;;;;;4.55;3.78;;;26.90;85.90;;;;;;4994739;28;20022;-75
2022/08/18 12:41:30;;;;;;;3.40;3.20;;;26.90;86.50;;;;;;4994802;28;20045;-75
2022/08/18 12:43:56;;;;;;;3.88;3.58;;;26.90;85.80;;;;;;4994788;28;20022;-75
2022/08/18 12:46:21;;;;;;;3.85;3.55;;;26.90;85.70;;;;;;4994469;28;20018;-75
2022/08/18 12:48:47;;;;;;;3.60;3.30;;;26.90;85.70;;;;;;4994580;28;20072;-75
2022/08/18 12:51:13;;;;;;;4.10;3.80;;;26.90;85.70;;;;;;4994072;28;20133;-75
2022/08/18 12:53:41;;;;;;;3.70;3.40;;;26.90;85.60;;;;;;4993169;28;20050;-75
2022/08/18 12:56:16;;;;;;;2.50;2.30;;;26.90;85.70;;;;;;4994415;28;20030;-75
2022/08/18 12:58:42;;;;;;;3.17;2.97;;;26.90;85.70;;;;;;4994575;28;20014;-75
2022/08/18 13:01:07;;;;;;;3.40;3.15;;;26.90;85.60;;;;;;4976906;28;20020;-75
2022/08/18 13:03:33;;;;;;;3.35;3.05;;;27.00;85.70;;;;;;4994508;28;20027;-75
2022/08/18 13:05:59;;;;;;;4.88;4.47;;;27.00;85.70;;;;;;4994579;28;20447;-75
2022/08/18 13:08:24;;;;;;;4.80;4.40;;;27.00;85.60;;;;;;4994251;28;20022;-75
2022/08/18 13:10:50;;;;;;;4.32;3.92;;;27.00;85.50;;;;;;4994206;28;20053;-75
2022/08/18 13:13:18;;;;;;;4.50;4.10;;;27.00;85.50;;;;;;4994080;28;20098;-75
2022/08/18 13:15:44;;;;;;;3.72;3.38;;;27.00;85.50;;;;;;4994023;28;20498;-75
2022/08/18 13:18:11;;;;;;;4.60;3.92;;;27.00;85.30;;;;;;4994321;28;20026;-75
2022/08/18 13:20:37;;;;;;;4.18;3.88;;;27.00;85.80;;;;;;4993827;28;20463;-75
2022/08/18 13:23:03;;;;;;;3.95;3.65;;;27.00;85.20;;;;;;4994272;28;20029;-75
2022/08/18 13:25:28;;;;;;;4.45;4.07;;;27.00;85.10;;;;;;4993600;28;20390;-75
2022/08/18 13:27:55;;;;;;;4.15;3.75;;;27.10;85.00;;;;;;4994181;28;20018;-75